sensor_id;sensor_type;location;lat;lon;timestamp;P1;durP1;ratioP1;P2;durP2;ratioP2
16642;SDS011;8435;52.184;5.406;2023-10-19T00:00:20;5.97;;;5.53;;
16642;SDS011;8435;52.184;5.406;2023-10-19T00:05:17;7.50;;;6.90;;
16642;SDS011;8435;52.184;5.406;2023-10-19T00:07:43;7.50;;;6.90;;
16642;SDS011;8435;52.184;5.406;2023-10-19T00:10:11;7.63;;;6.93;;
16642;SDS011;8435;52.184;5.406;2023-10-19T00:12:41;7.73;;;7.13;;
16642;SDS011;8435;52.184;5.406;2023-10-19T00:15:10;7.93;;;7.23;;
16642;SDS011;8435;52.184;5.406;2023-10-19T00:17:37;7.60;;;7.00;;
16642;SDS011;8435;52.184;5.406;2023-10-19T00:20:10;8.53;;;7.73;;
16642;SDS011;8435;52.184;5.406;2023-10-19T00:22:50;8.47;;;7.70;;
16642;SDS011;8435;52.184;5.406;2023-10-19T00:25:18;8.40;;;7.70;;
16642;SDS011;8435;52.184;5.406;2023-10-19T00:27:45;9.23;;;8.23;;
16642;SDS011;8435;52.184;5.406;2023-10-19T00:30:17;8.83;;;8.17;;
16642;SDS011;8435;52.184;5.406;2023-10-19T00:32:48;8.97;;;8.27;;
16642;SDS011;8435;52.184;5.406;2023-10-19T00:35:19;9.40;;;8.57;;
16642;SDS011;8435;52.184;5.406;2023-10-19T00:37:58;9.27;;;8.47;;
16642;SDS011;8435;52.184;5.406;2023-10-19T00:40:49;9.77;;;8.97;;
16642;SDS011;8435;52.184;5.406;2023-10-19T00:43:25;10.57;;;9.47;;
16642;SDS011;8435;52.184;5.406;2023-10-19T00:45:55;9.93;;;9.10;;
16642;SDS011;8435;52.184;5.406;2023-10-19T00:48:22;10.87;;;9.87;;
16642;SDS011;8435;52.184;5.406;2023-10-19T00:50:51;11.33;;;10.33;;
16642;SDS011;8435;52.184;5.406;2023-10-19T00:53:31;10.10;;;9.30;;
16642;SDS011;8435;52.184;5.406;2023-10-19T00:55:59;10.93;;;9.90;;
16642;SDS011;8435;52.184;5.406;2023-10-19T00:58:30;10.60;;;9.70;;
16642;SDS011;8435;52.184;5.406;2023-10-19T01:01:02;11.07;;;10.07;;
16642;SDS011;8435;52.184;5.406;2023-10-19T01:03:32;10.93;;;10.03;;
16642;SDS011;8435;52.184;5.406;2023-10-19T01:06:03;10.93;;;9.93;;
16642;SDS011;8435;52.184;5.406;2023-10-19T01:08:37;10.70;;;9.80;;
16642;SDS011;8435;52.184;5.406;2023-10-19T01:11:08;10.17;;;9.27;;
16642;SDS011;8435;52.184;5.406;2023-10-19T01:13:46;11.73;;;10.73;;
16642;SDS011;8435;52.184;5.406;2023-10-19T01:16:16;11.23;;;10.33;;
16642;SDS011;8435;52.184;5.406;2023-10-19T01:18:53;11.30;;;10.30;;
16642;SDS011;8435;52.184;5.406;2023-10-19T01:21:21;11.23;;;10.23;;
16642;SDS011;8435;52.184;5.406;2023-10-19T01:23:54;10.57;;;9.67;;
16642;SDS011;8435;52.184;5.406;2023-10-19T01:26:21;11.43;;;10.50;;
16642;SDS011;8435;52.184;5.406;2023-10-19T01:28:51;10.83;;;9.90;;
16642;SDS011;8435;52.184;5.406;2023-10-19T01:31:23;11.33;;;10.33;;
16642;SDS011;8435;52.184;5.406;2023-10-19T01:33:56;10.97;;;9.90;;
16642;SDS011;8435;52.184;5.406;2023-10-19T01:36:24;11.67;;;10.67;;
16642;SDS011;8435;52.184;5.406;2023-10-19T01:38:50;12.43;;;11.33;;
16642;SDS011;8435;52.184;5.406;2023-10-19T01:41:20;12.33;;;11.13;;
16642;SDS011;8435;52.184;5.406;2023-10-19T01:43:49;11.30;;;10.30;;
16642;SDS011;8435;52.184;5.406;2023-10-19T01:46:18;12.27;;;11.17;;
16642;SDS011;8435;52.184;5.406;2023-10-19T01:48:49;11.53;;;10.43;;
16642;SDS011;8435;52.184;5.406;2023-10-19T01:51:19;12.00;;;11.00;;
16642;SDS011;8435;52.184;5.406;2023-10-19T01:53:47;11.47;;;10.57;;
16642;SDS011;8435;52.184;5.406;2023-10-19T01:56:14;11.70;;;10.70;;
16642;SDS011;8435;52.184;5.406;2023-10-19T01:58:43;11.20;;;10.30;;
16642;SDS011;8435;52.184;5.406;2023-10-19T02:01:16;12.27;;;11.13;;
16642;SDS011;8435;52.184;5.406;2023-10-19T02:03:53;12.00;;;11.00;;
16642;SDS011;8435;52.184;5.406;2023-10-19T02:06:23;12.17;;;11.07;;
16642;SDS011;8435;52.184;5.406;2023-10-19T02:08:52;11.73;;;10.73;;
16642;SDS011;8435;52.184;5.406;2023-10-19T02:11:22;11.63;;;10.57;;
16642;SDS011;8435;52.184;5.406;2023-10-19T02:13:50;12.33;;;10.97;;
16642;SDS011;8435;52.184;5.406;2023-10-19T02:16:20;11.73;;;10.53;;
16642;SDS011;8435;52.184;5.406;2023-10-19T02:18:50;10.83;;;9.87;;
16642;SDS011;8435;52.184;5.406;2023-10-19T02:21:18;11.83;;;10.80;;
16642;SDS011;8435;52.184;5.406;2023-10-19T02:23:47;11.37;;;10.37;;
16642;SDS011;8435;52.184;5.406;2023-10-19T02:26:15;11.90;;;10.63;;
16642;SDS011;8435;52.184;5.406;2023-10-19T02:28:41;10.70;;;9.80;;
16642;SDS011;8435;52.184;5.406;2023-10-19T02:31:12;10.73;;;9.80;;
16642;SDS011;8435;52.184;5.406;2023-10-19T02:33:41;12.23;;;11.03;;
16642;SDS011;8435;52.184;5.406;2023-10-19T02:36:11;11.23;;;10.23;;
16642;SDS011;8435;52.184;5.406;2023-10-19T02:38:41;10.17;;;9.27;;
16642;SDS011;8435;52.184;5.406;2023-10-19T02:41:13;10.73;;;9.80;;
16642;SDS011;8435;52.184;5.406;2023-10-19T02:43:40;11.67;;;10.57;;
16642;SDS011;8435;52.184;5.406;2023-10-19T02:46:12;10.60;;;9.70;;
16642;SDS011;8435;52.184;5.406;2023-10-19T02:48:38;10.60;;;9.70;;
16642;SDS011;8435;52.184;5.406;2023-10-19T02:51:09;10.50;;;9.60;;
16642;SDS011;8435;52.184;5.406;2023-10-19T02:53:36;10.83;;;9.83;;
16642;SDS011;8435;52.184;5.406;2023-10-19T02:56:11;10.60;;;9.53;;
16642;SDS011;8435;52.184;5.406;2023-10-19T02:58:39;10.70;;;9.70;;
16642;SDS011;8435;52.184;5.406;2023-10-19T03:01:13;9.67;;;8.87;;
16642;SDS011;8435;52.184;5.406;2023-10-19T03:03:42;9.80;;;9.00;;
16642;SDS011;8435;52.184;5.406;2023-10-19T03:06:11;10.20;;;9.30;;
16642;SDS011;8435;52.184;5.406;2023-10-19T03:08:38;10.73;;;9.73;;
16642;SDS011;8435;52.184;5.406;2023-10-19T03:11:04;10.53;;;9.53;;
16642;SDS011;8435;52.184;5.406;2023-10-19T03:13:32;10.60;;;9.33;;
16642;SDS011;8435;52.184;5.406;2023-10-19T03:15:58;9.37;;;8.57;;
16642;SDS011;8435;52.184;5.406;2023-10-19T03:18:27;9.93;;;9.07;;
16642;SDS011;8435;52.184;5.406;2023-10-19T03:20:53;9.67;;;8.83;;
16642;SDS011;8435;52.184;5.406;2023-10-19T03:23:20;9.30;;;8.50;;
16642;SDS011;8435;52.184;5.406;2023-10-19T03:25:46;10.00;;;9.00;;
16642;SDS011;8435;52.184;5.406;2023-10-19T03:28:35;9.33;;;8.57;;
16642;SDS011;8435;52.184;5.406;2023-10-19T03:31:05;9.50;;;8.70;;
16642;SDS011;8435;52.184;5.406;2023-10-19T03:33:36;9.73;;;8.93;;
16642;SDS011;8435;52.184;5.406;2023-10-19T03:36:05;9.87;;;8.70;;
16642;SDS011;8435;52.184;5.406;2023-10-19T03:38:38;9.53;;;8.67;;
16642;SDS011;8435;52.184;5.406;2023-10-19T03:41:08;8.67;;;7.87;;
16642;SDS011;8435;52.184;5.406;2023-10-19T03:43:36;8.93;;;8.13;;
16642;SDS011;8435;52.184;5.406;2023-10-19T03:46:05;8.87;;;8.00;;
16642;SDS011;8435;52.184;5.406;2023-10-19T03:48:41;9.40;;;8.23;;
16642;SDS011;8435;52.184;5.406;2023-10-19T03:51:08;9.17;;;8.17;;
16642;SDS011;8435;52.184;5.406;2023-10-19T03:53:38;8.60;;;7.90;;
16642;SDS011;8435;52.184;5.406;2023-10-19T03:56:08;8.50;;;7.73;;
16642;SDS011;8435;52.184;5.406;2023-10-19T03:58:36;8.57;;;7.77;;
16642;SDS011;8435;52.184;5.406;2023-10-19T04:01:04;8.40;;;7.70;;
16642;SDS011;8435;52.184;5.406;2023-10-19T04:03:37;8.07;;;7.37;;
16642;SDS011;8435;52.184;5.406;2023-10-19T04:06:05;9.37;;;8.57;;
16642;SDS011;8435;52.184;5.406;2023-10-19T04:08:38;10.03;;;9.13;;
16642;SDS011;8435;52.184;5.406;2023-10-19T04:11:05;8.67;;;7.97;;
16642;SDS011;8435;52.184;5.406;2023-10-19T04:13:44;10.03;;;9.07;;
16642;SDS011;8435;52.184;5.406;2023-10-19T04:16:11;9.57;;;8.77;;
16642;SDS011;8435;52.184;5.406;2023-10-19T04:18:39;8.70;;;7.93;;
16642;SDS011;8435;52.184;5.406;2023-10-19T04:21:10;8.90;;;8.07;;
16642;SDS011;8435;52.184;5.406;2023-10-19T04:23:36;12.50;;;11.40;;
16642;SDS011;8435;52.184;5.406;2023-10-19T04:26:03;9.80;;;8.90;;
16642;SDS011;8435;52.184;5.406;2023-10-19T04:28:37;15.30;;;13.90;;
16642;SDS011;8435;52.184;5.406;2023-10-19T04:31:09;10.30;;;9.40;;
16642;SDS011;8435;52.184;5.406;2023-10-19T04:33:39;8.90;;;8.27;;
16642;SDS011;8435;52.184;5.406;2023-10-19T04:36:07;8.43;;;7.70;;
16642;SDS011;8435;52.184;5.406;2023-10-19T04:38:36;7.23;;;6.53;;
16642;SDS011;8435;52.184;5.406;2023-10-19T04:41:03;7.40;;;6.80;;
16642;SDS011;8435;52.184;5.406;2023-10-19T04:43:34;5.57;;;5.17;;
16642;SDS011;8435;52.184;5.406;2023-10-19T04:46:06;5.30;;;4.83;;
16642;SDS011;8435;52.184;5.406;2023-10-19T04:48:36;5.30;;;4.80;;
16642;SDS011;8435;52.184;5.406;2023-10-19T04:51:05;5.40;;;5.00;;
16642;SDS011;8435;52.184;5.406;2023-10-19T04:53:38;5.40;;;4.90;;
16642;SDS011;8435;52.184;5.406;2023-10-19T04:56:07;5.57;;;4.30;;
16642;SDS011;8435;52.184;5.406;2023-10-19T04:58:35;4.43;;;4.03;;
16642;SDS011;8435;52.184;5.406;2023-10-19T05:01:01;6.20;;;4.00;;
16642;SDS011;8435;52.184;5.406;2023-10-19T05:03:29;3.70;;;3.40;;
16642;SDS011;8435;52.184;5.406;2023-10-19T05:06:04;3.77;;;3.47;;
16642;SDS011;8435;52.184;5.406;2023-10-19T05:08:33;3.40;;;3.10;;
16642;SDS011;8435;52.184;5.406;2023-10-19T05:11:05;4.60;;;2.97;;
16642;SDS011;8435;52.184;5.406;2023-10-19T05:13:32;3.27;;;2.77;;
16642;SDS011;8435;52.184;5.406;2023-10-19T05:16:04;5.13;;;2.80;;
16642;SDS011;8435;52.184;5.406;2023-10-19T05:18:32;2.90;;;2.70;;
16642;SDS011;8435;52.184;5.406;2023-10-19T05:20:59;4.47;;;2.50;;
16642;SDS011;8435;52.184;5.406;2023-10-19T05:23:33;4.33;;;2.60;;
16642;SDS011;8435;52.184;5.406;2023-10-19T05:26:01;3.37;;;2.33;;
16642;SDS011;8435;52.184;5.406;2023-10-19T05:28:29;2.27;;;2.07;;
16642;SDS011;8435;52.184;5.406;2023-10-19T05:30:57;2.43;;;1.90;;
16642;SDS011;8435;52.184;5.406;2023-10-19T05:33:24;2.00;;;1.80;;
16642;SDS011;8435;52.184;5.406;2023-10-19T05:35:54;2.67;;;1.57;;
16642;SDS011;8435;52.184;5.406;2023-10-19T05:38:21;2.63;;;1.60;;
16642;SDS011;8435;52.184;5.406;2023-10-19T05:40:51;1.77;;;1.43;;
16642;SDS011;8435;52.184;5.406;2023-10-19T05:43:20;3.03;;;2.00;;
16642;SDS011;8435;52.184;5.406;2023-10-19T05:45:47;1.67;;;1.57;;
16642;SDS011;8435;52.184;5.406;2023-10-19T05:48:15;3.73;;;1.90;;
16642;SDS011;8435;52.184;5.406;2023-10-19T05:50:41;2.47;;;1.67;;
16642;SDS011;8435;52.184;5.406;2023-10-19T05:53:08;2.23;;;1.87;;
16642;SDS011;8435;52.184;5.406;2023-10-19T05:55:37;4.80;;;1.80;;
16642;SDS011;8435;52.184;5.406;2023-10-19T05:58:08;3.53;;;1.40;;
16642;SDS011;8435;52.184;5.406;2023-10-19T06:00:34;2.03;;;1.30;;
16642;SDS011;8435;52.184;5.406;2023-10-19T06:03:01;3.20;;;1.23;;
16642;SDS011;8435;52.184;5.406;2023-10-19T06:05:29;1.53;;;1.40;;
16642;SDS011;8435;52.184;5.406;2023-10-19T06:07:56;2.23;;;1.43;;
16642;SDS011;8435;52.184;5.406;2023-10-19T06:10:24;4.30;;;1.27;;
16642;SDS011;8435;52.184;5.406;2023-10-19T06:12:57;2.23;;;1.40;;
16642;SDS011;8435;52.184;5.406;2023-10-19T06:15:25;3.30;;;1.70;;
16642;SDS011;8435;52.184;5.406;2023-10-19T06:17:56;1.73;;;1.33;;
16642;SDS011;8435;52.184;5.406;2023-10-19T06:20:23;2.00;;;1.30;;
16642;SDS011;8435;52.184;5.406;2023-10-19T06:22:51;4.40;;;1.47;;
16642;SDS011;8435;52.184;5.406;2023-10-19T06:25:19;2.60;;;1.37;;
16642;SDS011;8435;52.184;5.406;2023-10-19T06:27:47;3.03;;;1.67;;
16642;SDS011;8435;52.184;5.406;2023-10-19T06:30:14;4.57;;;1.53;;
16642;SDS011;8435;52.184;5.406;2023-10-19T06:32:48;2.67;;;1.70;;
16642;SDS011;8435;52.184;5.406;2023-10-19T06:35:20;2.13;;;1.60;;
16642;SDS011;8435;52.184;5.406;2023-10-19T06:37:47;2.03;;;1.57;;
16642;SDS011;8435;52.184;5.406;2023-10-19T06:40:15;2.47;;;1.40;;
16642;SDS011;8435;52.184;5.406;2023-10-19T06:42:43;1.40;;;1.30;;
16642;SDS011;8435;52.184;5.406;2023-10-19T06:45:11;3.47;;;1.63;;
16642;SDS011;8435;52.184;5.406;2023-10-19T06:47:39;5.03;;;2.00;;
16642;SDS011;8435;52.184;5.406;2023-10-19T06:50:09;3.37;;;1.50;;
16642;SDS011;8435;52.184;5.406;2023-10-19T06:52:36;2.80;;;1.90;;
16642;SDS011;8435;52.184;5.406;2023-10-19T06:55:04;3.20;;;1.80;;
16642;SDS011;8435;52.184;5.406;2023-10-19T06:57:38;2.77;;;1.80;;
16642;SDS011;8435;52.184;5.406;2023-10-19T07:00:06;2.93;;;1.93;;
16642;SDS011;8435;52.184;5.406;2023-10-19T07:02:39;2.07;;;1.80;;
16642;SDS011;8435;52.184;5.406;2023-10-19T07:05:09;3.60;;;2.23;;
16642;SDS011;8435;52.184;5.406;2023-10-19T07:07:39;2.10;;;1.90;;
16642;SDS011;8435;52.184;5.406;2023-10-19T07:10:07;3.90;;;2.10;;
16642;SDS011;8435;52.184;5.406;2023-10-19T07:12:34;4.27;;;2.20;;
16642;SDS011;8435;52.184;5.406;2023-10-19T07:15:01;3.70;;;2.17;;
16642;SDS011;8435;52.184;5.406;2023-10-19T07:17:32;2.37;;;1.77;;
16642;SDS011;8435;52.184;5.406;2023-10-19T07:20:01;2.83;;;2.03;;
16642;SDS011;8435;52.184;5.406;2023-10-19T07:22:32;3.27;;;2.10;;
16642;SDS011;8435;52.184;5.406;2023-10-19T07:24:59;3.43;;;1.97;;
16642;SDS011;8435;52.184;5.406;2023-10-19T07:27:27;2.70;;;2.17;;
16642;SDS011;8435;52.184;5.406;2023-10-19T07:29:53;2.07;;;1.63;;
16642;SDS011;8435;52.184;5.406;2023-10-19T07:32:21;4.10;;;2.13;;
16642;SDS011;8435;52.184;5.406;2023-10-19T07:34:48;2.40;;;2.00;;
16642;SDS011;8435;52.184;5.406;2023-10-19T07:37:15;2.50;;;2.13;;
16642;SDS011;8435;52.184;5.406;2023-10-19T07:39:45;5.03;;;2.37;;
16642;SDS011;8435;52.184;5.406;2023-10-19T07:42:12;4.43;;;2.30;;
16642;SDS011;8435;52.184;5.406;2023-10-19T07:44:40;3.73;;;2.00;;
16642;SDS011;8435;52.184;5.406;2023-10-19T07:47:11;4.57;;;2.67;;
16642;SDS011;8435;52.184;5.406;2023-10-19T07:49:39;4.83;;;2.40;;
16642;SDS011;8435;52.184;5.406;2023-10-19T07:52:06;5.67;;;2.50;;
16642;SDS011;8435;52.184;5.406;2023-10-19T07:54:33;2.30;;;2.10;;
16642;SDS011;8435;52.184;5.406;2023-10-19T07:57:01;3.70;;;2.57;;
16642;SDS011;8435;52.184;5.406;2023-10-19T07:59:31;2.80;;;2.20;;
16642;SDS011;8435;52.184;5.406;2023-10-19T08:01:57;4.07;;;2.00;;
16642;SDS011;8435;52.184;5.406;2023-10-19T08:04:26;5.07;;;2.33;;
16642;SDS011;8435;52.184;5.406;2023-10-19T08:06:53;4.27;;;2.60;;
16642;SDS011;8435;52.184;5.406;2023-10-19T08:09:20;2.50;;;2.03;;
16642;SDS011;8435;52.184;5.406;2023-10-19T08:11:49;2.70;;;2.23;;
16642;SDS011;8435;52.184;5.406;2023-10-19T08:14:24;11.10;;;5.43;;
16642;SDS011;8435;52.184;5.406;2023-10-19T08:16:51;4.97;;;3.83;;
16642;SDS011;8435;52.184;5.406;2023-10-19T08:19:18;7.23;;;3.30;;
16642;SDS011;8435;52.184;5.406;2023-10-19T08:21:48;5.13;;;2.73;;
16642;SDS011;8435;52.184;5.406;2023-10-19T08:24:15;5.70;;;2.73;;
16642;SDS011;8435;52.184;5.406;2023-10-19T08:26:43;3.37;;;2.30;;
16642;SDS011;8435;52.184;5.406;2023-10-19T08:29:11;5.97;;;2.83;;
16642;SDS011;8435;52.184;5.406;2023-10-19T08:31:40;5.07;;;2.83;;
16642;SDS011;8435;52.184;5.406;2023-10-19T08:34:07;3.67;;;2.40;;
16642;SDS011;8435;52.184;5.406;2023-10-19T08:36:36;5.40;;;2.57;;
16642;SDS011;8435;52.184;5.406;2023-10-19T08:39:03;4.70;;;2.23;;
16642;SDS011;8435;52.184;5.406;2023-10-19T08:41:31;3.20;;;2.13;;
16642;SDS011;8435;52.184;5.406;2023-10-19T08:43:59;5.53;;;2.70;;
16642;SDS011;8435;52.184;5.406;2023-10-19T08:46:28;5.40;;;2.70;;
16642;SDS011;8435;52.184;5.406;2023-10-19T08:48:58;3.67;;;2.37;;
16642;SDS011;8435;52.184;5.406;2023-10-19T08:51:25;3.63;;;2.27;;
16642;SDS011;8435;52.184;5.406;2023-10-19T08:53:54;3.40;;;2.10;;
16642;SDS011;8435;52.184;5.406;2023-10-19T08:56:21;4.77;;;2.50;;
16642;SDS011;8435;52.184;5.406;2023-10-19T08:58:48;3.13;;;1.83;;
16642;SDS011;8435;52.184;5.406;2023-10-19T09:01:17;4.20;;;2.40;;
16642;SDS011;8435;52.184;5.406;2023-10-19T09:03:44;2.50;;;2.30;;
16642;SDS011;8435;52.184;5.406;2023-10-19T09:06:13;4.13;;;2.40;;
16642;SDS011;8435;52.184;5.406;2023-10-19T09:08:40;10.30;;;6.53;;
16642;SDS011;8435;52.184;5.406;2023-10-19T09:11:10;8.40;;;5.10;;
16642;SDS011;8435;52.184;5.406;2023-10-19T09:13:44;6.97;;;3.83;;
16642;SDS011;8435;52.184;5.406;2023-10-19T09:16:14;7.33;;;5.00;;
16642;SDS011;8435;52.184;5.406;2023-10-19T09:18:42;6.60;;;3.67;;
16642;SDS011;8435;52.184;5.406;2023-10-19T09:21:16;6.65;;;3.08;;
16642;SDS011;8435;52.184;5.406;2023-10-19T09:23:53;5.22;;;3.05;;
16642;SDS011;8435;52.184;5.406;2023-10-19T09:26:21;7.73;;;3.67;;
16642;SDS011;8435;52.184;5.406;2023-10-19T09:28:49;5.13;;;3.60;;
16642;SDS011;8435;52.184;5.406;2023-10-19T09:31:17;6.38;;;4.78;;
16642;SDS011;8435;52.184;5.406;2023-10-19T09:33:46;7.70;;;3.97;;
16642;SDS011;8435;52.184;5.406;2023-10-19T09:36:14;4.53;;;2.97;;
16642;SDS011;8435;52.184;5.406;2023-10-19T09:38:44;10.48;;;3.25;;
16642;SDS011;8435;52.184;5.406;2023-10-19T09:41:13;7.97;;;4.45;;
16642;SDS011;8435;52.184;5.406;2023-10-19T09:43:43;5.72;;;2.97;;
16642;SDS011;8435;52.184;5.406;2023-10-19T09:46:12;7.15;;;3.70;;
16642;SDS011;8435;52.184;5.406;2023-10-19T09:48:49;6.47;;;4.60;;
16642;SDS011;8435;52.184;5.406;2023-10-19T09:51:18;37.95;;;30.80;;
16642;SDS011;8435;52.184;5.406;2023-10-19T09:53:47;26.17;;;23.10;;
16642;SDS011;8435;52.184;5.406;2023-10-19T09:56:19;12.90;;;8.20;;
16642;SDS011;8435;52.184;5.406;2023-10-19T09:58:51;7.80;;;6.07;;
16642;SDS011;8435;52.184;5.406;2023-10-19T10:01:21;6.07;;;3.50;;
16642;SDS011;8435;52.184;5.406;2023-10-19T10:03:51;8.52;;;4.15;;
16642;SDS011;8435;52.184;5.406;2023-10-19T10:06:28;4.43;;;3.08;;
16642;SDS011;8435;52.184;5.406;2023-10-19T10:08:56;19.95;;;17.98;;
16642;SDS011;8435;52.184;5.406;2023-10-19T10:11:28;7.68;;;5.95;;
16642;SDS011;8435;52.184;5.406;2023-10-19T10:13:56;7.00;;;3.65;;
16642;SDS011;8435;52.184;5.406;2023-10-19T10:16:27;5.45;;;3.00;;
16642;SDS011;8435;52.184;5.406;2023-10-19T10:18:55;4.50;;;2.60;;
16642;SDS011;8435;52.184;5.406;2023-10-19T10:21:24;5.93;;;2.85;;
16642;SDS011;8435;52.184;5.406;2023-10-19T10:23:55;4.90;;;2.38;;
16642;SDS011;8435;52.184;5.406;2023-10-19T10:26:24;6.90;;;3.28;;
16642;SDS011;8435;52.184;5.406;2023-10-19T10:29:08;4.60;;;2.63;;
16642;SDS011;8435;52.184;5.406;2023-10-19T10:31:41;4.50;;;2.75;;
16642;SDS011;8435;52.184;5.406;2023-10-19T10:34:09;7.07;;;3.05;;
16642;SDS011;8435;52.184;5.406;2023-10-19T10:39:26;4.75;;;2.47;;
16642;SDS011;8435;52.184;5.406;2023-10-19T10:41:56;6.53;;;2.80;;
16642;SDS011;8435;52.184;5.406;2023-10-19T10:44:35;5.13;;;3.88;;
16642;SDS011;8435;52.184;5.406;2023-10-19T10:47:04;9.15;;;6.63;;
16642;SDS011;8435;52.184;5.406;2023-10-19T10:49:38;13.60;;;9.23;;
16642;SDS011;8435;52.184;5.406;2023-10-19T10:52:28;8.25;;;6.00;;
16642;SDS011;8435;52.184;5.406;2023-10-19T10:54:58;14.73;;;11.75;;
16642;SDS011;8435;52.184;5.406;2023-10-19T10:57:36;7.00;;;3.90;;
16642;SDS011;8435;52.184;5.406;2023-10-19T11:00:04;5.82;;;3.53;;
16642;SDS011;8435;52.184;5.406;2023-10-19T11:02:33;6.45;;;3.72;;
16642;SDS011;8435;52.184;5.406;2023-10-19T11:05:01;5.97;;;2.83;;
16642;SDS011;8435;52.184;5.406;2023-10-19T11:07:28;8.45;;;3.13;;
16642;SDS011;8435;52.184;5.406;2023-10-19T11:10:00;5.07;;;2.47;;
16642;SDS011;8435;52.184;5.406;2023-10-19T11:12:27;6.18;;;2.95;;
16642;SDS011;8435;52.184;5.406;2023-10-19T11:14:54;6.20;;;2.63;;
16642;SDS011;8435;52.184;5.406;2023-10-19T11:17:22;5.97;;;3.33;;
16642;SDS011;8435;52.184;5.406;2023-10-19T11:19:53;6.82;;;3.33;;
16642;SDS011;8435;52.184;5.406;2023-10-19T11:22:22;8.18;;;3.15;;
16642;SDS011;8435;52.184;5.406;2023-10-19T11:24:49;5.03;;;2.35;;
16642;SDS011;8435;52.184;5.406;2023-10-19T11:27:23;4.25;;;2.83;;
16642;SDS011;8435;52.184;5.406;2023-10-19T11:29:55;4.35;;;2.60;;
16642;SDS011;8435;52.184;5.406;2023-10-19T11:32:23;6.13;;;2.83;;
16642;SDS011;8435;52.184;5.406;2023-10-19T11:34:54;6.80;;;2.50;;
16642;SDS011;8435;52.184;5.406;2023-10-19T11:37:21;4.95;;;2.65;;
16642;SDS011;8435;52.184;5.406;2023-10-19T11:39:48;4.28;;;2.80;;
16642;SDS011;8435;52.184;5.406;2023-10-19T11:42:16;10.07;;;4.68;;
16642;SDS011;8435;52.184;5.406;2023-10-19T11:44:45;6.15;;;3.92;;
16642;SDS011;8435;52.184;5.406;2023-10-19T11:47:12;7.90;;;4.68;;
16642;SDS011;8435;52.184;5.406;2023-10-19T11:49:39;7.20;;;4.63;;
16642;SDS011;8435;52.184;5.406;2023-10-19T11:52:09;8.02;;;3.70;;
16642;SDS011;8435;52.184;5.406;2023-10-19T11:54:36;5.38;;;3.33;;
16642;SDS011;8435;52.184;5.406;2023-10-19T11:57:03;8.23;;;4.38;;
16642;SDS011;8435;52.184;5.406;2023-10-19T11:59:30;7.80;;;4.40;;
16642;SDS011;8435;52.184;5.406;2023-10-19T12:01:58;7.03;;;2.80;;
16642;SDS011;8435;52.184;5.406;2023-10-19T12:04:25;5.80;;;2.80;;
16642;SDS011;8435;52.184;5.406;2023-10-19T12:06:52;4.97;;;2.40;;
16642;SDS011;8435;52.184;5.406;2023-10-19T12:09:20;5.18;;;2.33;;
16642;SDS011;8435;52.184;5.406;2023-10-19T12:11:49;4.85;;;2.10;;
16642;SDS011;8435;52.184;5.406;2023-10-19T12:14:18;7.18;;;2.40;;
16642;SDS011;8435;52.184;5.406;2023-10-19T12:16:46;6.90;;;2.13;;
16642;SDS011;8435;52.184;5.406;2023-10-19T12:19:16;5.72;;;2.28;;
16642;SDS011;8435;52.184;5.406;2023-10-19T12:21:44;4.82;;;2.00;;
16642;SDS011;8435;52.184;5.406;2023-10-19T12:24:10;5.57;;;2.20;;
16642;SDS011;8435;52.184;5.406;2023-10-19T12:26:37;6.07;;;2.10;;
16642;SDS011;8435;52.184;5.406;2023-10-19T12:29:04;5.57;;;1.92;;
16642;SDS011;8435;52.184;5.406;2023-10-19T12:31:34;8.45;;;2.58;;
16642;SDS011;8435;52.184;5.406;2023-10-19T12:34:04;5.68;;;2.20;;
16642;SDS011;8435;52.184;5.406;2023-10-19T12:36:34;4.82;;;2.10;;
16642;SDS011;8435;52.184;5.406;2023-10-19T12:39:02;10.93;;;2.30;;
16642;SDS011;8435;52.184;5.406;2023-10-19T12:41:31;4.40;;;2.10;;
16642;SDS011;8435;52.184;5.406;2023-10-19T12:43:59;6.65;;;2.13;;
16642;SDS011;8435;52.184;5.406;2023-10-19T12:46:33;4.78;;;2.17;;
16642;SDS011;8435;52.184;5.406;2023-10-19T12:49:02;5.20;;;2.20;;
16642;SDS011;8435;52.184;5.406;2023-10-19T12:51:34;6.22;;;2.20;;
16642;SDS011;8435;52.184;5.406;2023-10-19T12:54:01;5.68;;;1.90;;
16642;SDS011;8435;52.184;5.406;2023-10-19T12:56:28;8.38;;;2.40;;
16642;SDS011;8435;52.184;5.406;2023-10-19T12:58:58;5.93;;;2.30;;
16642;SDS011;8435;52.184;5.406;2023-10-19T13:01:25;5.30;;;2.53;;
16642;SDS011;8435;52.184;5.406;2023-10-19T13:03:53;5.18;;;2.13;;
16642;SDS011;8435;52.184;5.406;2023-10-19T13:06:23;6.38;;;2.38;;
16642;SDS011;8435;52.184;5.406;2023-10-19T13:08:57;4.28;;;2.08;;
16642;SDS011;8435;52.184;5.406;2023-10-19T13:11:23;4.78;;;2.40;;
16642;SDS011;8435;52.184;5.406;2023-10-19T13:13:52;7.45;;;2.75;;
16642;SDS011;8435;52.184;5.406;2023-10-19T13:16:22;3.75;;;2.40;;
16642;SDS011;8435;52.184;5.406;2023-10-19T13:18:52;5.53;;;2.42;;
16642;SDS011;8435;52.184;5.406;2023-10-19T13:21:19;7.47;;;2.70;;
16642;SDS011;8435;52.184;5.406;2023-10-19T13:23:52;5.68;;;2.70;;
16642;SDS011;8435;52.184;5.406;2023-10-19T13:26:21;5.95;;;2.50;;
16642;SDS011;8435;52.184;5.406;2023-10-19T13:28:48;5.55;;;2.10;;
16642;SDS011;8435;52.184;5.406;2023-10-19T13:31:17;6.10;;;2.65;;
16642;SDS011;8435;52.184;5.406;2023-10-19T13:33:46;5.95;;;2.40;;
16642;SDS011;8435;52.184;5.406;2023-10-19T13:36:13;6.40;;;2.50;;
16642;SDS011;8435;52.184;5.406;2023-10-19T13:38:41;7.80;;;2.58;;
16642;SDS011;8435;52.184;5.406;2023-10-19T13:41:10;6.68;;;3.47;;
16642;SDS011;8435;52.184;5.406;2023-10-19T13:43:40;5.90;;;4.03;;
16642;SDS011;8435;52.184;5.406;2023-10-19T13:46:09;6.65;;;3.50;;
16642;SDS011;8435;52.184;5.406;2023-10-19T13:48:36;8.02;;;3.35;;
16642;SDS011;8435;52.184;5.406;2023-10-19T13:51:05;7.28;;;3.22;;
16642;SDS011;8435;52.184;5.406;2023-10-19T13:53:37;5.72;;;2.80;;
16642;SDS011;8435;52.184;5.406;2023-10-19T13:56:07;5.57;;;2.85;;
16642;SDS011;8435;52.184;5.406;2023-10-19T13:58:35;6.15;;;3.90;;
16642;SDS011;8435;52.184;5.406;2023-10-19T14:01:06;6.28;;;2.90;;
16642;SDS011;8435;52.184;5.406;2023-10-19T14:03:35;4.10;;;2.83;;
16642;SDS011;8435;52.184;5.406;2023-10-19T14:06:03;7.80;;;3.00;;
16642;SDS011;8435;52.184;5.406;2023-10-19T14:08:30;7.38;;;2.80;;
16642;SDS011;8435;52.184;5.406;2023-10-19T14:11:00;4.65;;;2.85;;
16642;SDS011;8435;52.184;5.406;2023-10-19T14:13:28;5.22;;;2.53;;
16642;SDS011;8435;52.184;5.406;2023-10-19T14:15:55;5.53;;;2.53;;
16642;SDS011;8435;52.184;5.406;2023-10-19T14:18:23;7.30;;;2.67;;
16642;SDS011;8435;52.184;5.406;2023-10-19T14:20:50;6.93;;;2.63;;
16642;SDS011;8435;52.184;5.406;2023-10-19T14:23:16;5.95;;;2.75;;
16642;SDS011;8435;52.184;5.406;2023-10-19T14:25:43;4.57;;;2.72;;
16642;SDS011;8435;52.184;5.406;2023-10-19T14:28:12;5.32;;;2.63;;
16642;SDS011;8435;52.184;5.406;2023-10-19T14:30:39;5.55;;;2.20;;
16642;SDS011;8435;52.184;5.406;2023-10-19T14:33:05;5.70;;;3.13;;
16642;SDS011;8435;52.184;5.406;2023-10-19T14:35:37;5.13;;;2.50;;
16642;SDS011;8435;52.184;5.406;2023-10-19T14:38:06;5.95;;;3.10;;
16642;SDS011;8435;52.184;5.406;2023-10-19T14:40:34;5.65;;;3.17;;
16642;SDS011;8435;52.184;5.406;2023-10-19T14:43:01;5.97;;;2.75;;
16642;SDS011;8435;52.184;5.406;2023-10-19T14:45:30;6.07;;;3.25;;
16642;SDS011;8435;52.184;5.406;2023-10-19T14:47:58;6.10;;;2.75;;
16642;SDS011;8435;52.184;5.406;2023-10-19T14:50:28;8.07;;;3.10;;
16642;SDS011;8435;52.184;5.406;2023-10-19T14:52:56;6.40;;;3.13;;
16642;SDS011;8435;52.184;5.406;2023-10-19T14:55:24;7.68;;;3.78;;
16642;SDS011;8435;52.184;5.406;2023-10-19T14:57:51;8.48;;;3.47;;
16642;SDS011;8435;52.184;5.406;2023-10-19T15:00:20;7.20;;;3.35;;
16642;SDS011;8435;52.184;5.406;2023-10-19T15:02:51;6.60;;;3.30;;
16642;SDS011;8435;52.184;5.406;2023-10-19T15:05:20;7.45;;;2.85;;
16642;SDS011;8435;52.184;5.406;2023-10-19T15:07:51;6.82;;;2.90;;
16642;SDS011;8435;52.184;5.406;2023-10-19T15:10:22;8.38;;;3.63;;
16642;SDS011;8435;52.184;5.406;2023-10-19T15:12:52;6.03;;;3.58;;
16642;SDS011;8435;52.184;5.406;2023-10-19T15:15:20;11.13;;;3.88;;